Time;durP1;ratioP1;P1;durP2;ratioP2;P2;SDS_P1;SDS_P2;PMS_P1;PMS_P2;Temp;Humidity;BMP_temperature;BMP_pressure;BME280_temperature;BME280_humidity;BME280_pressure;Samples;Min_cycle;Max_cycle;Signal;HPM_P1;HPM_P2
2022/01/05 00:00:56;;;;;;;8.03;1.20;;;;;;;1.96;98.93;99906.22;2099051;28;20100;-65
2022/01/05 00:01:57;;;;;;;5.03;1.20;;;;;;;1.98;98.74;99909.59;2098903;28;20028;-66
2022/01/05 00:02:58;;;;;;;4.95;1.23;;;;;;;1.92;98.56;99914.88;2098955;28;20039;-66
2022/01/05 00:03:58;;;;;;;4.00;0.90;;;;;;;1.86;98.17;99910.72;2090106;28;20513;-66
2022/01/05 00:04:58;;;;;;;3.60;0.90;;;;;;;1.80;99.07;99910.84;2081794;28;20024;-65
2022/01/05 00:05:58;;;;;;;6.07;1.27;;;;;;;1.73;99.07;99915.28;2090129;28;20399;-66
2022/01/05 00:06:59;;;;;;;2.37;0.90;;;;;;;1.71;99.26;99921.31;2098469;28;20070;-66
2022/01/05 00:07:59;;;;;;;6.47;1.13;;;;;;;1.69;99.04;99921.34;2098768;28;20017;-66
2022/01/05 00:08:59;;;;;;;10.83;1.97;;;;;;;1.71;99.04;99922.16;2098893;28;20097;-66
2022/01/05 00:10:00;;;;;;;4.30;1.07;;;;;;;1.66;99.27;99932.56;2098952;28;20038;-66
2022/01/05 00:11:00;;;;;;;3.83;0.83;;;;;;;1.69;99.32;99931.66;2098255;28;20072;-66
2022/01/05 00:12:00;;;;;;;4.83;1.23;;;;;;;1.69;99.01;99923.94;2098353;28;20032;-65
2022/01/05 00:13:00;;;;;;;3.30;1.47;;;;;;;1.69;99.22;99930.78;2098786;28;20117;-65
2022/01/05 00:14:01;;;;;;;3.63;0.90;;;;;;;1.65;99.18;99922.31;2098791;28;20067;-66
2022/01/05 00:15:01;;;;;;;6.07;1.30;;;;;;;1.65;99.25;99932.59;2098940;28;20029;-66
2022/01/05 00:16:01;;;;;;;5.40;1.60;;;;;;;1.59;99.34;99932.69;2098936;28;20032;-65
2022/01/05 00:17:02;;;;;;;6.20;1.40;;;;;;;1.51;98.91;99925.97;2098889;28;20448;-66
2022/01/05 00:18:02;;;;;;;5.47;1.17;;;;;;;1.46;99.72;99932.06;2098911;28;20390;-66
2022/01/05 00:19:03;;;;;;;8.13;1.53;;;;;;;1.36;99.66;99932.28;2098871;28;20029;-66
2022/01/05 00:20:05;;;;;;;5.93;1.50;;;;;;;1.34;100.00;99933.19;2098906;28;20469;-66
2022/01/05 00:21:05;;;;;;;4.70;1.38;;;;;;;1.34;100.00;99934.03;2098753;28;20025;-65
2022/01/05 00:22:06;;;;;;;7.93;1.40;;;;;;;1.35;100.00;99934.88;2098909;28;20059;-65
2022/01/05 00:23:06;;;;;;;7.22;1.33;;;;;;;1.34;100.00;99922.91;2098817;28;20036;-66
2022/01/05 00:24:08;;;;;;;6.10;1.27;;;;;;;1.31;100.00;99918.66;2098923;28;20063;-66
2022/01/05 00:25:08;;;;;;;3.13;1.02;;;;;;;1.32;100.00;99919.50;2098843;28;20488;-66
2022/01/05 00:26:08;;;;;;;5.15;0.98;;;;;;;1.33;100.00;99918.63;2099063;28;20017;-66
2022/01/05 00:27:09;;;;;;;4.67;1.30;;;;;;;1.30;100.00;99918.69;2098901;28;20020;-66
2022/01/05 00:28:09;;;;;;;5.73;1.40;;;;;;;1.23;100.00;99921.34;2098518;28;20120;-66
2022/01/05 00:29:09;;;;;;;5.90;1.00;;;;;;;1.20;100.00;99926.56;2090383;28;20029;-66
2022/01/05 00:30:10;;;;;;;2.50;0.77;;;;;;;1.21;100.00;99924.84;2090125;28;20052;-65
2022/01/05 00:31:10;;;;;;;2.35;1.00;;;;;;;1.22;100.00;99929.97;2098961;28;20036;-65
2022/01/05 00:32:10;;;;;;;7.40;1.30;;;;;;;1.21;100.00;99922.28;2098853;28;20036;-65
2022/01/05 00:33:12;;;;;;;3.10;0.83;;;;;;;1.21;100.00;99915.41;2098108;28;20032;-65
2022/01/05 00:34:12;;;;;;;4.22;1.25;;;;;;;1.17;100.00;99916.34;2089818;28;20115;-65
2022/01/05 00:35:13;;;;;;;9.32;1.40;;;;;;;1.12;100.00;99924.13;2089805;28;20052;-67
2022/01/05 00:36:13;;;;;;;7.20;1.17;;;;;;;1.08;100.00;99921.63;2098846;28;20030;-66
2022/01/05 00:37:13;;;;;;;5.67;1.10;;;;;;;1.05;100.00;99916.53;2098194;28;20031;-66
2022/01/05 00:38:13;;;;;;;9.00;1.77;;;;;;;1.01;100.00;99911.50;2098164;28;20051;-65
2022/01/05 00:39:14;;;;;;;4.93;1.27;;;;;;;1.01;100.00;99911.50;2098111;28;20147;-66
2022/01/05 00:40:14;;;;;;;4.43;0.73;;;;;;;1.01;100.00;99916.63;2098161;28;20052;-66
2022/01/05 00:41:14;;;;;;;4.90;1.20;;;;;;;0.97;100.00;99920.13;2098040;28;20027;-66
2022/01/05 00:42:15;;;;;;;5.43;1.27;;;;;;;1.01;100.00;99924.34;2098159;28;20017;-66
2022/01/05 00:43:15;;;;;;;4.60;0.93;;;;;;;0.96;100.00;99923.53;2098639;28;20028;-66
2022/01/05 00:44:15;;;;;;;3.07;1.20;;;;;;;0.95;100.00;99916.72;2098729;28;20424;-65
2022/01/05 00:45:16;;;;;;;4.83;0.97;;;;;;;0.94;100.00;99915.03;2098575;28;20056;-65
2022/01/05 00:46:16;;;;;;;3.67;0.80;;;;;;;0.99;100.00;99923.50;2098634;28;20060;-65
2022/01/05 00:47:16;;;;;;;8.70;1.70;;;;;;;0.99;99.88;99928.63;2098622;28;20095;-65
2022/01/05 00:48:17;;;;;;;8.50;1.77;;;;;;;1.06;99.34;99931.94;2098401;28;20012;-65
2022/01/05 00:49:17;;;;;;;6.90;1.83;;;;;;;1.13;99.01;99928.38;2089653;28;20226;-64
2022/01/05 00:50:17;;;;;;;4.30;1.37;;;;;;;1.11;99.09;99935.31;2089812;28;20021;-66
2022/01/05 00:51:18;;;;;;;7.07;1.43;;;;;;;1.08;98.90;99931.91;2098567;28;20032;-65
2022/01/05 00:52:18;;;;;;;6.67;1.00;;;;;;;1.02;99.47;99936.31;2098615;28;20021;-66
2022/01/05 00:53:18;;;;;;;4.17;1.23;;;;;;;0.97;99.76;99940.69;2098546;28;20469;-66
2022/01/05 00:54:18;;;;;;;5.13;1.27;;;;;;;0.90;99.44;99944.22;2097861;28;20532;-66
2022/01/05 00:55:19;;;;;;;5.10;1.10;;;;;;;0.88;99.42;99945.97;2097705;28;20047;-64
2022/01/05 00:56:19;;;;;;;6.07;1.17;;;;;;;0.85;99.85;99946.00;2098520;28;20077;-66
2022/01/05 00:57:19;;;;;;;6.10;1.77;;;;;;;0.80;99.53;99947.81;2098543;28;20071;-65
2022/01/05 00:58:20;;;;;;;5.47;1.33;;;;;;;0.84;99.70;99959.72;2098539;28;20107;-65
2022/01/05 00:59:20;;;;;;;5.87;0.93;;;;;;;0.90;99.46;99960.47;2098507;28;20029;-66
2022/01/05 01:00:20;;;;;;;5.73;1.33;;;;;;;0.95;98.90;99964.69;2098565;28;20056;-65
2022/01/05 01:01:21;;;;;;;3.30;1.73;;;;;;;0.89;99.27;99958.78;2098632;28;20504;-64
2022/01/05 01:02:21;;;;;;;6.27;1.20;;;;;;;0.83;99.33;99961.47;2098552;28;20060;-65
2022/01/05 01:03:21;;;;;;;5.03;1.70;;;;;;;0.79;99.51;99967.53;2089577;28;20029;-66
2022/01/05 01:04:22;;;;;;;9.68;2.05;;;;;;;0.86;99.24;99960.56;2081292;28;20041;-65
2022/01/05 01:05:22;;;;;;;5.67;1.60;;;;;;;0.91;99.24;99961.31;2089694;28;20023;-65
2022/01/05 01:06:22;;;;;;;6.93;1.43;;;;;;;0.87;99.09;99959.69;2098446;28;20031;-65
2022/01/05 01:07:23;;;;;;;8.50;1.73;;;;;;;0.78;99.09;99955.53;2098415;28;20052;-66
2022/01/05 01:08:23;;;;;;;8.33;2.07;;;;;;;0.71;99.44;99965.06;2089467;28;20035;-66
2022/01/05 01:09:23;;;;;;;5.73;0.80;;;;;;;0.68;99.95;99952.25;2089635;28;20486;-65
2022/01/05 01:10:23;;;;;;;6.70;1.97;;;;;;;0.75;99.71;99961.56;2098428;28;20028;-65
2022/01/05 01:11:24;;;;;;;7.90;2.40;;;;;;;0.72;99.58;99958.22;2098458;28;20085;-66
2022/01/05 01:12:24;;;;;;;7.07;1.48;;;;;;;0.76;99.26;99962.44;2098471;28;20082;-65
2022/01/05 01:13:24;;;;;;;9.23;1.97;;;;;;;0.72;99.56;99956.47;2098436;28;20363;-66
2022/01/05 01:14:25;;;;;;;8.50;1.77;;;;;;;0.66;99.25;99961.72;2098433;28;20032;-66
2022/01/05 01:15:25;;;;;;;6.50;1.60;;;;;;;0.68;99.67;99951.44;2098440;28;20024;-66
2022/01/05 01:16:25;;;;;;;7.37;1.57;;;;;;;0.65;99.75;99954.88;2098456;28;20056;-66
2022/01/05 01:17:25;;;;;;;10.37;2.17;;;;;;;0.61;99.81;99960.94;2098408;28;20080;-66
2022/01/05 01:18:26;;;;;;;3.17;1.27;;;;;;;0.61;100.00;99956.66;2098013;28;20034;-66
2022/01/05 01:19:26;;;;;;;7.20;1.53;;;;;;;0.62;100.00;99954.94;2098173;28;20354;-65
2022/01/05 01:20:26;;;;;;;6.83;1.77;;;;;;;0.59;99.95;99955.00;2098391;28;20283;-66
2022/01/05 01:21:27;;;;;;;5.90;1.70;;;;;;;0.57;100.00;99956.72;2097723;28;20025;-65
2022/01/05 01:22:29;;;;;;;5.37;1.00;;;;;;;0.59;100.00;99957.56;2097728;28;20025;-65
2022/01/05 01:23:30;;;;;;;7.30;1.42;;;;;;;0.63;99.76;99964.34;2097804;28;20038;-65
2022/01/05 01:24:30;;;;;;;4.83;1.10;;;;;;;0.62;100.00;99957.50;2097742;28;20043;-64
2022/01/05 01:25:30;;;;;;;4.73;1.33;;;;;;;0.60;99.49;99967.81;2097849;28;20035;-65
2022/01/05 01:26:31;;;;;;;4.50;1.40;;;;;;;0.51;99.77;99968.78;2098428;28;20038;-66
2022/01/05 01:27:31;;;;;;;6.28;1.30;;;;;;;0.48;100.00;99965.44;2098402;28;20094;-65
2022/01/05 01:28:31;;;;;;;8.47;1.70;;;;;;;0.49;100.00;99960.28;2098070;28;20093;-66
2022/01/05 01:29:32;;;;;;;6.10;1.80;;;;;;;0.53;99.98;99965.34;2098340;28;20541;-65
2022/01/05 01:30:34;;;;;;;5.40;1.77;;;;;;;0.50;100.00;99961.97;2098388;28;20466;-66
2022/01/05 01:31:34;;;;;;;5.60;1.60;;;;;;;0.49;100.00;99973.13;2098160;28;20032;-65
2022/01/05 01:32:34;;;;;;;5.07;1.30;;;;;;;0.48;100.00;99968.00;2098371;28;20025;-65
2022/01/05 01:33:34;;;;;;;3.83;1.30;;;;;;;0.48;99.86;99962.84;2089415;28;20132;-65
2022/01/05 01:34:35;;;;;;;6.00;1.10;;;;;;;0.45;99.79;99968.88;2089342;28;20055;-65
2022/01/05 01:35:35;;;;;;;6.43;1.77;;;;;;;0.42;99.85;99974.06;2089360;28;20020;-66
2022/01/05 01:36:35;;;;;;;7.47;1.83;;;;;;;0.45;100.00;99968.88;2089479;28;20116;-65
2022/01/05 01:37:36;;;;;;;3.90;1.37;;;;;;;0.46;99.94;99970.59;2098341;28;20071;-65
2022/01/05 01:38:37;;;;;;;5.97;2.05;;;;;;;0.45;99.80;99963.72;2089373;28;20077;-64
2022/01/05 01:39:37;;;;;;;8.23;2.08;;;;;;;0.49;99.40;99965.41;2089475;28;20029;-65
2022/01/05 01:40:37;;;;;;;5.70;2.27;;;;;;;0.54;99.72;99969.63;2089418;28;20188;-65
2022/01/05 01:41:38;;;;;;;5.37;1.70;;;;;;;0.50;99.16;99974.78;2089396;28;20047;-65
2022/01/05 01:42:38;;;;;;;5.40;1.33;;;;;;;0.47;99.36;99982.53;2098331;28;20286;-65
2022/01/05 01:43:39;;;;;;;4.53;1.83;;;;;;;0.43;99.35;99974.91;2098287;28;20070;-65
2022/01/05 01:44:39;;;;;;;7.18;1.58;;;;;;;0.38;99.30;99972.41;2098231;28;20492;-65
2022/01/05 01:45:39;;;;;;;3.93;1.50;;;;;;;0.36;99.08;99975.00;2098345;28;20036;-66
2022/01/05 01:46:40;;;;;;;4.90;1.70;;;;;;;0.32;99.17;99967.34;2089340;28;20021;-66
2022/01/05 01:47:41;;;;;;;5.63;1.70;;;;;;;0.29;99.34;99977.66;2089429;28;20017;-66
2022/01/05 01:48:42;;;;;;;7.50;1.75;;;;;;;0.29;99.79;99970.81;2098259;28;20446;-65
2022/01/05 01:49:42;;;;;;;6.03;1.50;;;;;;;0.34;99.38;99966.47;2098287;28;20031;-66
2022/01/05 01:50:42;;;;;;;5.43;1.40;;;;;;;0.36;99.40;99969.00;2098265;28;20031;-65
2022/01/05 01:51:43;;;;;;;2.97;1.20;;;;;;;0.32;99.20;99962.22;2098329;28;20047;-65
2022/01/05 01:52:43;;;;;;;5.43;2.63;;;;;;;0.30;99.53;99964.81;2098211;28;20079;-66
2022/01/05 01:53:44;;;;;;;7.30;1.50;;;;;;;0.28;99.32;99966.56;2098259;28;20025;-65
2022/01/05 01:54:44;;;;;;;7.65;1.98;;;;;;;0.23;99.75;99961.47;2098273;28;20481;-64
2022/01/05 01:55:48;;;;;;;7.13;1.60;;;;;;;0.22;99.64;99964.94;2098440;28;20052;-66
2022/01/05 01:56:50;;;;;;;3.05;1.50;;;;;;;0.20;99.27;99961.53;2098196;28;20062;-64
2022/01/05 01:57:50;;;;;;;7.97;1.92;;;;;;;0.20;99.67;99964.09;2098282;28;20022;-65
2022/01/05 01:58:51;;;;;;;9.37;2.33;;;;;;;0.21;99.32;99970.06;2098261;28;20047;-65
2022/01/05 01:59:51;;;;;;;8.20;1.92;;;;;;;0.20;99.90;99973.53;2098267;28;20033;-66
2022/01/05 02:00:51;;;;;;;8.80;1.57;;;;;;;0.22;99.58;99979.47;2089333;28;20096;-66
2022/01/05 02:01:52;;;;;;;5.00;1.57;;;;;;;0.16;99.23;99977.81;2089223;28;20021;-66
2022/01/05 02:02:52;;;;;;;5.93;2.10;;;;;;;0.16;99.44;99980.41;2098073;28;20021;-66
2022/01/05 02:03:52;;;;;;;6.10;1.50;;;;;;;0.12;99.53;99978.75;2098255;28;20094;-65
2022/01/05 02:04:53;;;;;;;5.23;2.03;;;;;;;0.20;98.83;99979.47;2098254;28;20488;-65
2022/01/05 02:05:53;;;;;;;5.47;1.40;;;;;;;0.22;97.99;99982.03;2098172;28;20032;-65
2022/01/05 02:06:53;;;;;;;8.67;1.77;;;;;;;0.21;98.46;99981.16;2089232;28;20780;-66
2022/01/05 02:07:54;;;;;;;3.80;1.03;;;;;;;0.18;98.92;99973.53;2089152;28;20102;-65
2022/01/05 02:08:54;;;;;;;4.17;1.90;;;;;;;0.23;98.59;99982.00;2097414;28;20362;-65
2022/01/05 02:09:54;;;;;;;5.83;1.23;;;;;;;0.23;98.49;99978.59;2098185;28;20282;-65
2022/01/05 02:10:55;;;;;;;5.20;1.43;;;;;;;0.17;98.43;99976.94;2089273;28;20112;-65
2022/01/05 02:11:55;;;;;;;8.83;2.10;;;;;;;0.23;97.85;99984.56;2089225;28;20390;-65
2022/01/05 02:12:55;;;;;;;6.23;1.57;;;;;;;0.24;97.81;99981.13;2097649;28;20027;-65
2022/01/05 02:13:56;;;;;;;5.30;1.70;;;;;;;0.20;98.13;99979.47;2098157;28;20017;-65
2022/01/05 02:14:57;;;;;;;3.92;1.17;;;;;;;0.12;97.99;99982.16;2098226;28;20091;-65
2022/01/05 02:15:57;;;;;;;7.47;1.60;;;;;;;0.14;98.59;99971.88;2089259;28;20064;-65
2022/01/05 02:17:02;;;;;;;4.47;1.37;;;;;;;0.17;97.94;99976.94;2089273;28;20331;-65
2022/01/05 02:19:02;;;;;;;6.07;1.50;;;;;;;0.13;97.92;99972.72;2089495;28;20099;-66
2022/01/05 02:20:20;;;;;;;5.50;1.10;;;;;;;0.10;97.80;99978.75;2089198;28;20028;-66
2022/01/05 02:21:20;;;;;;;4.60;1.05;;;;;;;0.07;97.92;99983.09;2091650;28;20473;-65
2022/01/05 02:22:21;;;;;;;6.10;1.67;;;;;;;0.08;98.03;99984.78;2098017;28;20029;-65
2022/01/05 02:23:21;;;;;;;9.07;1.90;;;;;;;0.10;98.06;99983.06;2098204;28;20097;-65
2022/01/05 02:24:21;;;;;;;6.30;1.20;;;;;;;0.07;97.76;99978.78;2089248;28;20103;-65
2022/01/05 02:25:22;;;;;;;5.77;1.50;;;;;;;0.08;97.59;99979.66;2089276;28;20039;-66
2022/01/05 02:26:23;;;;;;;5.45;2.08;;;;;;;0.05;97.88;99983.09;2098069;28;20029;-66
2022/01/05 02:27:23;;;;;;;6.90;1.77;;;;;;;0.03;98.16;99981.44;2098197;28;20024;-66
2022/01/05 02:28:23;;;;;;;5.93;2.27;;;;;;;0.01;97.76;99972.88;2091441;28;20075;-65
2022/01/05 02:29:24;;;;;;;3.00;0.93;;;;;;;0.04;97.80;99983.97;2097586;28;20032;-65
2022/01/05 02:30:27;;;;;;;5.90;1.98;;;;;;;0.08;98.04;99979.66;2107739;28;20153;-65
2022/01/05 02:31:27;;;;;;;9.07;1.38;;;;;;;0.10;97.44;99985.63;2108121;28;20031;-65
2022/01/05 02:32:28;;;;;;;8.60;1.87;;;;;;;0.05;97.94;99985.66;2108035;28;20507;-64
2022/01/05 02:33:28;;;;;;;6.50;2.00;;;;;;;-0.05;97.65;99990.06;2108043;28;20020;-65
2022/01/05 02:34:28;;;;;;;9.90;1.57;;;;;;;-0.10;97.93;99989.25;2108058;28;20028;-65
2022/01/05 02:35:29;;;;;;;8.37;1.27;;;;;;;-0.05;98.53;99990.06;2108032;28;20052;-65
2022/01/05 02:36:29;;;;;;;10.43;1.97;;;;;;;-0.01;97.71;99989.16;2098951;28;20024;-65
2022/01/05 02:37:30;;;;;;;6.43;1.30;;;;;;;0.00;98.30;100000.28;2099015;28;20535;-65
2022/01/05 02:38:30;;;;;;;7.32;1.65;;;;;;;-0.05;98.15;99984.94;2108030;28;20020;-65
2022/01/05 02:39:31;;;;;;;6.45;1.35;;;;;;;-0.03;98.08;99990.88;2098939;28;20059;-66
2022/01/05 02:40:31;;;;;;;5.63;1.23;;;;;;;-0.01;98.13;99990.88;2098985;28;20068;-66
2022/01/05 02:41:31;;;;;;;3.93;1.83;;;;;;;-0.08;98.17;99987.53;2098767;28;20074;-65
2022/01/05 02:42:31;;;;;;;5.03;1.90;;;;;;;-0.10;98.36;99996.94;2098989;28;20025;-65
2022/01/05 02:43:32;;;;;;;6.53;1.57;;;;;;;-0.11;97.83;99992.69;2107835;28;20065;-65
2022/01/05 02:44:32;;;;;;;6.10;1.67;;;;;;;-0.09;98.75;99993.53;2098854;28;20025;-65
2022/01/05 02:45:32;;;;;;;5.07;1.33;;;;;;;-0.11;98.28;99994.44;2098811;28;20024;-65
2022/01/05 02:46:34;;;;;;;5.13;1.20;;;;;;;-0.11;98.03;99985.00;2107828;28;20107;-66
2022/01/05 02:47:35;;;;;;;6.88;1.30;;;;;;;-0.13;98.38;99987.56;2107909;28;20105;-64
2022/01/05 02:48:36;;;;;;;8.05;1.65;;;;;;;-0.07;98.34;99991.78;2107887;28;20063;-65
2022/01/05 02:49:36;;;;;;;2.90;0.85;;;;;;;-0.06;98.36;99997.78;2107868;28;20028;-65
2022/01/05 02:50:36;;;;;;;6.93;1.53;;;;;;;-0.02;98.28;99995.16;2107967;28;20059;-65
2022/01/05 02:51:37;;;;;;;9.10;1.87;;;;;;;-0.04;98.07;99999.47;2107917;28;20384;-66
2022/01/05 02:52:37;;;;;;;4.43;1.50;;;;;;;-0.05;98.39;99996.91;2107961;28;20077;-65
2022/01/05 02:53:38;;;;;;;8.30;1.53;;;;;;;-0.09;98.40;100008.06;2107909;28;20557;-65
2022/01/05 02:54:38;;;;;;;7.53;1.65;;;;;;;-0.10;98.48;99999.50;2098810;28;20412;-65
2022/01/05 02:55:39;;;;;;;5.07;1.27;;;;;;;-0.02;98.53;100000.31;2098901;28;20054;-63
2022/01/05 02:56:40;;;;;;;8.40;1.77;;;;;;;-0.02;98.14;99997.72;2107898;28;20059;-65
2022/01/05 02:57:40;;;;;;;6.10;1.45;;;;;;;-0.09;98.26;100003.81;2107842;28;20420;-66
2022/01/05 02:58:41;;;;;;;5.40;1.27;;;;;;;-0.10;98.58;100007.22;2107927;28;20016;-65
2022/01/05 02:59:41;;;;;;;6.20;1.47;;;;;;;-0.10;98.56;100012.34;2107848;28;20282;-65
2022/01/05 03:00:42;;;;;;;8.20;2.20;;;;;;;-0.13;98.90;100012.41;2107847;28;20016;-66
2022/01/05 03:01:42;;;;;;;8.02;1.58;;;;;;;-0.16;98.91;100012.44;2107819;28;20012;-65
2022/01/05 03:02:43;;;;;;;7.57;1.60;;;;;;;-0.11;98.58;100010.66;2107892;28;20016;-65
2022/01/05 03:03:44;;;;;;;7.93;1.95;;;;;;;-0.16;98.39;100018.41;2107836;28;20540;-65
2022/01/05 03:04:44;;;;;;;6.43;1.60;;;;;;;-0.16;98.43;100012.44;2098772;28;20025;-65
2022/01/05 03:05:44;;;;;;;8.03;2.50;;;;;;;-0.18;98.83;100014.16;2098858;28;20027;-66
2022/01/05 03:06:45;;;;;;;5.73;1.50;;;;;;;-0.20;98.88;100015.91;2107770;28;20465;-64
2022/01/05 03:07:45;;;;;;;7.13;1.60;;;;;;;-0.19;99.01;100015.88;2107737;28;20362;-66
2022/01/05 03:08:45;;;;;;;3.80;1.40;;;;;;;-0.17;98.69;100015.88;2098872;28;20444;-66
2022/01/05 03:09:46;;;;;;;2.77;1.07;;;;;;;-0.25;99.03;100018.50;2098788;28;20060;-66
2022/01/05 03:10:46;;;;;;;8.57;1.67;;;;;;;-0.25;99.10;100025.38;2098766;28;20099;-64
2022/01/05 03:11:47;;;;;;;11.45;1.52;;;;;;;-0.25;99.36;100023.63;2098700;28;20517;-65
2022/01/05 03:12:47;;;;;;;5.23;1.93;;;;;;;-0.24;99.49;100012.50;2107788;28;20016;-64
2022/01/05 03:13:49;;;;;;;11.30;1.98;;;;;;;-0.20;98.51;100021.03;2107769;28;20016;-64
2022/01/05 03:14:49;;;;;;;;;;;;;;;-0.15;98.74;100026.94;2108194;28;20050;-65
2022/01/05 03:15:51;;;;;;;8.90;1.70;;;;;;;-0.19;98.41;100028.72;2107682;28;19912;-65
2022/01/05 03:16:51;;;;;;;11.38;2.22;;;;;;;-0.19;98.74;100027.84;2107688;28;20435;-65
2022/01/05 03:17:52;;;;;;;6.10;1.53;;;;;;;-0.19;98.49;100022.72;2098643;28;20115;-64
2022/01/05 03:18:52;;;;;;;12.33;2.00;;;;;;;-0.17;98.59;100033.81;2098572;28;20025;-66
2022/01/05 03:19:52;;;;;;;7.10;2.07;;;;;;;-0.25;98.87;100033.88;2107514;28;20031;-66
2022/01/05 03:20:52;;;;;;;4.77;1.90;;;;;;;-0.30;98.56;100031.38;2107615;28;20055;-65
2022/01/05 03:21:53;;;;;;;9.87;1.67;;;;;;;-0.25;98.70;100038.19;2098649;28;20094;-65
2022/01/05 03:22:53;;;;;;;5.33;1.73;;;;;;;-0.25;98.71;100039.00;2098730;28;20024;-66
2022/01/05 03:23:53;;;;;;;6.17;1.53;;;;;;;-0.28;98.62;100045.03;2107666;28;20028;-65
2022/01/05 03:24:54;;;;;;;10.20;1.67;;;;;;;-0.32;98.95;100045.94;2107664;28;20039;-65
2022/01/05 03:25:54;;;;;;;5.80;1.60;;;;;;;-0.29;98.91;100040.78;2107644;28;20024;-66
2022/01/05 03:26:55;;;;;;;5.60;1.57;;;;;;;-0.32;99.02;100045.94;2107643;28;20150;-66
2022/01/05 03:27:55;;;;;;;5.77;1.33;;;;;;;-0.30;99.30;100051.03;2107493;28;20108;-65
2022/01/05 03:28:56;;;;;;;9.20;1.35;;;;;;;-0.27;99.41;100051.84;2107519;28;20050;-65
2022/01/05 03:29:56;;;;;;;7.30;2.27;;;;;;;-0.25;99.01;100043.31;2107630;28;20051;-65
2022/01/05 03:30:56;;;;;;;5.27;1.10;;;;;;;-0.29;98.87;100048.47;2107621;28;20059;-66
2022/01/05 03:31:57;;;;;;;8.53;1.47;;;;;;;-0.25;99.07;100049.28;2107628;28;20051;-65
2022/01/05 03:34:01;;;;;;;8.43;1.77;;;;;;;-0.25;98.73;100053.56;2099110;28;20029;-65
2022/01/05 03:35:01;;;;;;;6.23;1.30;;;;;;;-0.30;98.83;100056.19;2107546;28;20024;-66
2022/01/05 03:36:03;;;;;;;5.77;2.00;;;;;;;-0.31;98.87;100049.34;2107504;28;20032;-66
2022/01/05 03:37:03;;;;;;;6.43;1.80;;;;;;;-0.30;98.67;100051.88;2107522;28;20031;-66
2022/01/05 03:38:05;;;;;;;8.52;1.70;;;;;;;-0.32;98.60;100053.63;2107462;28;20020;-65
2022/01/05 03:39:05;;;;;;;8.52;1.23;;;;;;;-0.28;98.46;100055.28;2107505;28;20509;-66
2022/01/05 03:40:06;;;;;;;5.43;1.60;;;;;;;-0.22;98.08;100058.66;2107503;28;20020;-65
2022/01/05 03:41:06;;;;;;;4.97;1.38;;;;;;;-0.21;97.94;100056.06;2107538;28;20051;-66
2022/01/05 03:42:07;;;;;;;9.07;2.30;;;;;;;-0.23;98.09;100046.69;2106958;28;20084;-65
2022/01/05 03:43:08;;;;;;;7.13;2.07;;;;;;;-0.19;98.04;100058.63;2107593;28;20384;-65
2022/01/05 03:44:08;;;;;;;8.35;2.00;;;;;;;-0.24;97.79;100065.53;2107504;28;20385;-65
2022/01/05 03:45:09;;;;;;;8.20;1.57;;;;;;;-0.27;97.94;100062.09;2098508;28;20025;-65
2022/01/05 03:46:09;;;;;;;11.68;1.63;;;;;;;-0.29;97.75;100056.16;2098540;28;20028;-66
2022/01/05 03:47:09;;;;;;;5.63;1.33;;;;;;;-0.24;97.52;100060.41;2107530;28;20020;-65
2022/01/05 03:48:11;;;;;;;9.57;2.03;;;;;;;-0.16;97.15;100062.03;2107484;28;20020;-65
2022/01/05 03:49:11;;;;;;;6.95;1.45;;;;;;;-0.14;97.13;100064.53;2106673;28;20126;-66
2022/01/05 03:50:12;;;;;;;9.03;1.63;;;;;;;-0.14;97.04;100064.53;2106895;28;20397;-66
2022/01/05 03:51:12;;;;;;;8.40;3.70;;;;;;;-0.17;96.76;100060.31;2107467;28;20047;-66
2022/01/05 03:52:12;;;;;;;9.67;2.97;;;;;;;-0.13;96.93;100058.56;2098451;28;20036;-66
2022/01/05 03:53:13;;;;;;;7.53;1.40;;;;;;;-0.14;97.12;100067.09;2098571;28;20029;-64
2022/01/05 03:54:13;;;;;;;9.27;2.05;;;;;;;-0.13;96.55;100058.56;2106829;28;20044;-65
2022/01/05 03:55:14;;;;;;;4.63;1.37;;;;;;;-0.11;96.33;100067.09;2106940;28;20019;-64
2022/01/05 03:56:14;;;;;;;11.13;1.63;;;;;;;-0.04;96.17;100062.72;2107424;28;20161;-66
2022/01/05 03:57:14;;;;;;;10.03;2.10;;;;;;;-0.02;96.47;100068.72;2107529;28;20051;-65
2022/01/05 03:58:15;;;;;;;10.67;1.83;;;;;;;-0.01;95.71;100068.69;2107302;28;20016;-65
2022/01/05 03:59:15;;;;;;;3.83;1.67;;;;;;;0.02;95.34;100067.81;2098356;28;20075;-66
2022/01/05 04:00:16;;;;;;;6.77;1.47;;;;;;;0.06;95.54;100068.59;2098449;28;20076;-65
2022/01/05 04:01:16;;;;;;;11.95;1.73;;;;;;;0.12;95.17;100076.25;2107380;28;20031;-66
2022/01/05 04:02:16;;;;;;;11.10;2.10;;;;;;;0.14;95.23;100066.84;2107394;28;20059;-65
2022/01/05 04:03:18;;;;;;;7.50;1.90;;;;;;;0.17;95.37;100071.91;2107308;28;20039;-66
2022/01/05 04:04:18;;;;;;;;;;;;;;;0.21;94.72;100073.56;2107660;28;20028;-65
2022/01/05 04:05:19;;;;;;;10.40;2.33;;;;;;;0.27;94.73;100066.69;2107312;28;19915;-64
2022/01/05 04:06:19;;;;;;;12.60;1.97;;;;;;;0.28;93.95;100068.38;2107283;28;20546;-65
2022/01/05 04:07:19;;;;;;;9.13;2.07;;;;;;;0.27;94.51;100066.69;2107258;28;20032;-66
2022/01/05 04:08:19;;;;;;;7.57;1.80;;;;;;;0.24;94.75;100063.25;2098227;28;20032;-66
2022/01/05 04:09:20;;;;;;;12.33;2.10;;;;;;;0.22;94.37;100069.28;2098357;28;20063;-66
2022/01/05 04:10:20;;;;;;;6.93;1.67;;;;;;;0.21;94.69;100063.28;2107149;28;20020;-66
2022/01/05 04:11:20;;;;;;;9.57;1.70;;;;;;;0.20;94.33;100065.91;2107313;28;20040;-66
2022/01/05 04:12:20;;;;;;;5.63;1.33;;;;;;;0.23;94.31;100070.97;2098217;28;20024;-66
2022/01/05 04:13:21;;;;;;;10.50;1.83;;;;;;;0.21;94.66;100068.44;2098354;28;20031;-66
2022/01/05 04:14:21;;;;;;;6.53;1.50;;;;;;;0.19;94.42;100075.31;2107257;28;20028;-64
2022/01/05 04:15:21;;;;;;;12.33;1.80;;;;;;;0.19;95.41;100074.44;2107259;28;20443;-66
2022/01/05 04:16:22;;;;;;;7.25;1.42;;;;;;;0.13;94.79;100070.25;2107273;28;20031;-65
2022/01/05 04:17:22;;;;;;;6.07;1.80;;;;;;;0.10;94.83;100075.44;2107260;28;20031;-65
2022/01/05 04:18:22;;;;;;;4.40;1.33;;;;;;;0.11;94.69;100077.13;2107244;28;20055;-67
2022/01/05 04:19:23;;;;;;;6.50;1.40;;;;;;;0.08;94.63;100077.16;2107221;28;20073;-64
2022/01/05 04:20:24;;;;;;;6.63;1.20;;;;;;;0.04;94.97;100070.34;2098147;28;20162;-66
2022/01/05 04:21:24;;;;;;;5.55;1.58;;;;;;;0.09;94.93;100069.44;2098274;28;20056;-65
2022/01/05 04:22:25;;;;;;;10.13;3.87;;;;;;;0.09;94.79;100073.72;2107087;28;20067;-65
2022/01/05 04:23:25;;;;;;;6.67;1.60;;;;;;;0.09;94.56;100073.72;2107229;28;20032;-62
2022/01/05 04:24:25;;;;;;;5.17;1.10;;;;;;;0.11;94.73;100075.38;2107193;28;20118;-65
2022/01/05 04:25:26;;;;;;;8.80;2.63;;;;;;;0.06;94.48;100081.44;2098107;28;20028;-65
2022/01/05 04:26:26;;;;;;;9.60;1.77;;;;;;;0.05;94.78;100079.75;2098234;28;20020;-64
2022/01/05 04:27:27;;;;;;;7.47;1.40;;;;;;;0.06;94.54;100084.88;2098058;28;20151;-65
2022/01/05 04:28:27;;;;;;;8.93;3.05;;;;;;;0.10;94.22;100083.13;2098003;28;20040;-65
2022/01/05 04:29:27;;;;;;;7.13;1.20;;;;;;;0.07;94.48;100085.72;2107117;28;20023;-64
2022/01/05 04:30:27;;;;;;;13.23;2.17;;;;;;;0.09;94.48;100081.41;2107128;28;20031;-64
2022/01/05 04:31:28;;;;;;;14.50;2.03;;;;;;;0.10;94.58;100086.53;2098056;28;20017;-65
2022/01/05 04:32:28;;;;;;;8.40;1.60;;;;;;;0.11;94.34;100084.81;2098192;28;20286;-64
2022/01/05 04:33:28;;;;;;;15.00;1.87;;;;;;;0.12;94.45;100089.06;2098053;28;20086;-65
2022/01/05 04:34:28;;;;;;;10.77;1.50;;;;;;;0.10;94.06;100086.53;2098119;28;20028;-63
2022/01/05 04:35:29;;;;;;;7.47;2.23;;;;;;;0.11;94.54;100092.53;2107044;28;20035;-65
2022/01/05 04:36:29;;;;;;;9.00;1.40;;;;;;;0.11;94.46;100088.22;2107035;28;20103;-64
2022/01/05 04:37:31;;;;;;;11.47;1.77;;;;;;;0.18;94.04;100094.16;2107045;28;20027;-65
2022/01/05 04:38:32;;;;;;;12.00;2.10;;;;;;;0.13;94.29;100095.91;2098015;28;20038;-65
2022/01/05 04:39:32;;;;;;;11.10;1.50;;;;;;;0.12;94.60;100096.78;2089738;28;20017;-63
2022/01/05 04:40:33;;;;;;;11.73;2.78;;;;;;;0.14;94.34;100092.50;2098125;28;20035;-66
2022/01/05 04:41:33;;;;;;;17.40;3.37;;;;;;;0.13;94.54;100090.78;2107038;28;20102;-65
2022/01/05 04:42:33;;;;;;;11.40;2.00;;;;;;;0.09;94.45;100094.25;2107074;28;20381;-65
2022/01/05 04:43:34;;;;;;;11.17;2.30;;;;;;;0.08;94.88;100095.13;2107001;28;20035;-65
2022/01/05 04:44:34;;;;;;;9.53;1.60;;;;;;;0.14;94.69;100097.63;2107098;28;20035;-63
2022/01/05 04:45:34;;;;;;;10.27;2.67;;;;;;;0.16;94.56;100106.13;2106987;28;20027;-66
2022/01/05 04:46:35;;;;;;;9.37;2.17;;;;;;;0.12;94.18;100096.78;2106951;28;20024;-64
2022/01/05 04:47:35;;;;;;;9.80;1.40;;;;;;;0.06;94.74;100110.53;2107067;28;20484;-66